createdAt,value
2022-07-29T00:00:38.384Z,0.00
2022-07-29T00:01:38.365Z,0.00
2022-07-29T00:02:38.385Z,0.00
2022-07-29T00:03:38.394Z,0.00
2022-07-29T00:04:38.403Z,0.00
2022-07-29T00:05:38.328Z,0.00
2022-07-29T00:06:38.316Z,0.00
2022-07-29T00:07:38.305Z,0.00
2022-07-29T00:08:38.306Z,0.00
2022-07-29T00:09:43.023Z,0.00
2022-07-29T00:10:39.267Z,0.00
2022-07-29T00:11:38.256Z,0.00
2022-07-29T00:12:38.269Z,0.00
2022-07-29T00:13:38.247Z,0.00
2022-07-29T00:14:38.228Z,0.00
2022-07-29T00:15:38.208Z,0.00
2022-07-29T00:16:38.349Z,0.00
2022-07-29T00:17:38.188Z,0.00
2022-07-29T00:18:38.195Z,0.00
2022-07-29T00:19:39.009Z,0.00
2022-07-29T00:20:38.160Z,0.00
2022-07-29T00:21:38.139Z,0.00
2022-07-29T00:22:38.159Z,0.00
2022-07-29T00:23:38.129Z,0.00
2022-07-29T00:24:38.111Z,0.00
2022-07-29T00:25:38.102Z,0.00
2022-07-29T00:26:38.091Z,0.00
2022-07-29T00:27:38.081Z,0.00
2022-07-29T00:28:38.072Z,0.00
2022-07-29T00:29:38.054Z,0.00
2022-07-29T00:30:38.071Z,0.00
2022-07-29T00:31:38.126Z,0.00
2022-07-29T00:32:38.043Z,0.00
2022-07-29T00:33:38.012Z,0.00
2022-07-29T00:34:38.003Z,0.00
2022-07-29T00:35:37.994Z,0.00
2022-07-29T00:36:37.987Z,0.00
2022-07-29T00:37:37.986Z,0.00
2022-07-29T00:38:37.965Z,0.00
2022-07-29T00:39:37.946Z,0.00
2022-07-29T00:40:37.945Z,0.00
2022-07-29T00:41:38.930Z,0.00
2022-07-29T00:42:37.939Z,0.00
2022-07-29T00:43:37.896Z,0.00
2022-07-29T00:44:37.896Z,0.00
2022-07-29T00:45:37.878Z,0.00
2022-07-29T00:46:37.964Z,0.00
2022-07-29T00:47:37.878Z,0.00
2022-07-29T00:48:37.873Z,0.00
2022-07-29T00:49:37.837Z,0.00
2022-07-29T00:50:37.835Z,0.00
2022-07-29T00:51:37.808Z,0.00
2022-07-29T00:52:37.819Z,0.00
2022-07-29T00:53:37.788Z,0.00
2022-07-29T00:54:44.517Z,0.00
2022-07-29T00:55:38.773Z,0.00
2022-07-29T00:56:37.759Z,0.00
2022-07-29T00:57:37.758Z,0.00
2022-07-29T00:58:37.747Z,0.00
2022-07-29T00:59:37.730Z,0.00
2022-07-29T01:00:37.757Z,0.00
2022-07-29T01:01:37.767Z,0.00
2022-07-29T01:02:38.010Z,0.00
2022-07-29T01:03:37.701Z,0.00
2022-07-29T01:04:37.695Z,0.00
2022-07-29T01:05:50.976Z,0.00
2022-07-29T01:06:38.653Z,0.00
2022-07-29T01:07:37.653Z,0.00
2022-07-29T01:08:37.632Z,0.00
2022-07-29T01:09:45.542Z,0.00
2022-07-29T01:10:38.614Z,0.00
2022-07-29T01:11:37.595Z,0.00
2022-07-29T01:12:37.601Z,0.00
2022-07-29T01:13:37.577Z,0.00
2022-07-29T01:14:37.567Z,0.00
2022-07-29T01:15:37.554Z,0.00
2022-07-29T01:16:38.610Z,0.00
2022-07-29T01:17:37.557Z,0.00
2022-07-29T01:18:37.524Z,0.00
2022-07-29T01:19:37.516Z,0.00
2022-07-29T01:20:37.511Z,0.00
2022-07-29T01:21:37.488Z,0.00
2022-07-29T01:22:37.489Z,0.00
2022-07-29T01:23:37.478Z,0.00
2022-07-29T01:24:37.459Z,0.00
2022-07-29T01:25:37.457Z,0.00
2022-07-29T01:26:37.442Z,0.00
2022-07-29T01:27:37.439Z,0.00
2022-07-29T01:28:37.420Z,0.00
2022-07-29T01:29:40.357Z,0.00
2022-07-29T01:30:37.394Z,0.00
2022-07-29T01:31:38.553Z,0.00
2022-07-29T01:32:38.395Z,0.00
2022-07-29T01:33:37.361Z,0.00
2022-07-29T01:34:37.361Z,0.00
2022-07-29T01:35:37.353Z,0.00
2022-07-29T01:36:37.329Z,0.00
2022-07-29T01:37:37.353Z,0.00
2022-07-29T01:38:37.331Z,0.00
2022-07-29T01:39:37.294Z,0.00
2022-07-29T01:40:37.283Z,0.00
2022-07-29T01:41:37.282Z,0.00
2022-07-29T01:42:37.264Z,0.00
2022-07-29T01:43:37.255Z,0.00
2022-07-29T01:44:37.259Z,0.00
2022-07-29T01:45:37.234Z,0.00
2022-07-29T01:46:37.262Z,0.00
2022-07-29T01:47:37.224Z,0.00
2022-07-29T01:48:37.237Z,0.00
2022-07-29T01:49:37.196Z,0.00
2022-07-29T01:50:37.183Z,0.00
2022-07-29T01:51:37.167Z,0.00
2022-07-29T01:52:37.158Z,0.00
2022-07-29T01:53:38.254Z,0.00
2022-07-29T01:54:37.127Z,0.00
2022-07-29T01:55:37.126Z,0.00
2022-07-29T01:56:37.121Z,0.00
2022-07-29T01:57:37.107Z,0.00
2022-07-29T01:58:37.109Z,0.00
2022-07-29T01:59:37.087Z,0.00
2022-07-29T02:00:37.073Z,0.00
2022-07-29T02:01:37.120Z,0.00
2022-07-29T02:02:37.037Z,0.00
2022-07-29T02:03:37.039Z,0.00
2022-07-29T02:04:37.040Z,0.00
2022-07-29T02:05:37.019Z,0.00
2022-07-29T02:06:37.002Z,0.00
2022-07-29T02:07:37.000Z,0.00
2022-07-29T02:08:36.995Z,0.00
2022-07-29T02:09:36.973Z,0.00
2022-07-29T02:10:36.984Z,0.00
2022-07-29T02:11:36.954Z,0.00
2022-07-29T02:12:36.930Z,0.00
2022-07-29T02:13:36.942Z,0.00
2022-07-29T02:14:36.923Z,0.00
2022-07-29T02:15:36.904Z,0.00
2022-07-29T02:16:36.946Z,0.00
2022-07-29T02:17:38.853Z,0.00
2022-07-29T02:18:36.895Z,0.00
2022-07-29T02:19:36.873Z,0.00
2022-07-29T02:20:36.846Z,0.00
2022-07-29T02:21:36.834Z,0.00
2022-07-29T02:22:36.825Z,0.00
2022-07-29T02:23:50.940Z,0.00
2022-07-29T02:24:37.804Z,0.00
2022-07-29T02:25:38.377Z,0.00
2022-07-29T02:26:36.786Z,0.00
2022-07-29T02:27:36.766Z,0.00
2022-07-29T02:28:36.787Z,0.00
2022-07-29T02:29:36.748Z,0.00
2022-07-29T02:30:36.738Z,0.00
2022-07-29T02:31:36.842Z,0.00
2022-07-29T02:32:36.726Z,0.00
2022-07-29T02:33:36.718Z,0.00
2022-07-29T02:34:36.716Z,0.00
2022-07-29T02:35:36.706Z,0.00
2022-07-29T02:36:36.680Z,0.00
2022-07-29T02:37:36.660Z,0.00
2022-07-29T02:38:36.670Z,0.00
2022-07-29T02:39:36.649Z,0.00
2022-07-29T02:40:36.639Z,0.00
2022-07-29T02:41:36.618Z,0.00
2022-07-29T02:42:36.609Z,0.00
2022-07-29T02:43:36.612Z,0.00
2022-07-29T02:44:36.592Z,0.00
2022-07-29T02:45:36.570Z,0.00
2022-07-29T02:46:36.636Z,0.00
2022-07-29T02:47:41.647Z,0.00
2022-07-29T02:48:37.584Z,0.00
2022-07-29T02:49:36.540Z,0.00
2022-07-29T02:50:36.530Z,0.00
2022-07-29T02:51:43.929Z,0.00
2022-07-29T02:52:37.503Z,0.00
2022-07-29T02:53:36.493Z,0.00
2022-07-29T02:54:36.484Z,0.00
2022-07-29T02:55:36.463Z,0.00
2022-07-29T02:56:36.471Z,0.00
2022-07-29T02:57:54.865Z,0.00
2022-07-29T02:58:37.453Z,0.00
2022-07-29T02:59:36.424Z,0.00
2022-07-29T03:00:36.415Z,0.00
2022-07-29T03:01:36.407Z,0.00
2022-07-29T03:02:36.412Z,0.00
2022-07-29T03:03:36.387Z,0.00
2022-07-29T03:04:36.396Z,0.00
2022-07-29T03:05:36.365Z,0.00
2022-07-29T03:06:38.877Z,0.00
2022-07-29T03:07:36.336Z,0.00
2022-07-29T03:08:36.352Z,0.00
2022-07-29T03:09:36.308Z,0.00
2022-07-29T03:10:36.307Z,0.00
2022-07-29T03:11:41.498Z,0.00
2022-07-29T03:12:37.277Z,0.00
2022-07-29T03:13:36.288Z,0.00
2022-07-29T03:14:36.266Z,0.00
2022-07-29T03:15:36.326Z,0.00
2022-07-29T03:16:41.007Z,4.00
2022-07-29T03:17:37.229Z,4.00
2022-07-29T03:18:36.230Z,4.00
2022-07-29T03:19:36.210Z,4.00
2022-07-29T03:20:36.199Z,4.00
2022-07-29T03:21:36.181Z,4.00
2022-07-29T03:22:36.181Z,4.00
2022-07-29T03:23:36.869Z,8.00
2022-07-29T03:24:36.151Z,8.00
2022-07-29T03:25:36.150Z,8.00
2022-07-29T03:26:36.143Z,8.00
2022-07-29T03:27:36.112Z,8.00
2022-07-29T03:28:36.131Z,12.00
2022-07-29T03:29:36.092Z,12.00
2022-07-29T03:30:36.094Z,16.00
2022-07-29T03:31:36.129Z,20.00
2022-07-29T03:32:36.074Z,24.00
2022-07-29T03:33:36.070Z,28.00
2022-07-29T03:34:36.045Z,32.00
2022-07-29T03:35:36.044Z,36.00
2022-07-29T03:36:36.024Z,40.00
2022-07-29T03:37:36.013Z,48.00
2022-07-29T03:38:36.015Z,56.00
2022-07-29T03:39:35.991Z,60.00
2022-07-29T03:40:35.984Z,68.00
2022-07-29T03:41:35.974Z,76.00
2022-07-29T03:42:35.964Z,88.00
2022-07-29T03:43:35.964Z,100.00
2022-07-29T03:44:35.946Z,108.00
2022-07-29T03:45:35.918Z,124.00
2022-07-29T03:46:35.951Z,132.00
2022-07-29T03:47:49.992Z,148.00
2022-07-29T03:48:36.943Z,164.00
2022-07-29T03:49:35.886Z,180.00
2022-07-29T03:50:35.878Z,196.00
2022-07-29T03:51:35.867Z,216.00
2022-07-29T03:52:35.849Z,236.00
2022-07-29T03:53:35.851Z,252.00
2022-07-29T03:54:35.841Z,272.00
2022-07-29T03:55:35.820Z,292.00
2022-07-29T03:56:35.821Z,312.00
2022-07-29T03:57:35.791Z,336.00
2022-07-29T03:58:35.790Z,360.00
2022-07-29T03:59:35.790Z,384.00
2022-07-29T04:00:35.767Z,408.00
2022-07-29T04:01:35.865Z,432.00
2022-07-29T04:02:35.761Z,464.00
2022-07-29T04:03:35.793Z,492.00
2022-07-29T04:04:35.752Z,524.00
2022-07-29T04:05:35.702Z,568.00
2022-07-29T04:06:35.711Z,624.00
2022-07-29T04:07:35.682Z,676.00
2022-07-29T04:08:35.693Z,724.00
2022-07-29T04:09:35.692Z,772.00
2022-07-29T04:10:35.848Z,828.00
2022-07-29T04:12:01.339Z,896.00
2022-07-29T04:12:36.643Z,968.00
2022-07-29T04:13:35.622Z,1032.00
2022-07-29T04:14:35.649Z,1088.00
2022-07-29T04:15:35.632Z,1144.00
2022-07-29T04:16:35.677Z,1188.00
2022-07-29T04:17:35.602Z,1228.00
2022-07-29T04:18:35.586Z,1264.00
2022-07-29T04:19:35.583Z,1296.00
2022-07-29T04:20:35.555Z,1332.00
2022-07-29T04:21:35.548Z,1364.00
2022-07-29T04:22:35.544Z,1400.00
2022-07-29T04:23:35.526Z,1444.00
2022-07-29T04:24:36.507Z,1512.00
2022-07-29T04:25:35.485Z,1596.00
2022-07-29T04:26:35.480Z,1688.00
2022-07-29T04:27:35.466Z,1796.00
2022-07-29T04:28:35.456Z,1892.00
2022-07-29T04:29:35.468Z,1972.00
2022-07-29T04:30:35.449Z,2036.00
2022-07-29T04:31:35.505Z,2096.00
2022-07-29T04:32:35.431Z,2144.00
2022-07-29T04:33:35.408Z,2188.00
2022-07-29T04:34:35.409Z,2236.00
2022-07-29T04:35:38.070Z,2284.00
2022-07-29T04:36:35.369Z,2328.00
2022-07-29T04:37:35.356Z,2372.00
2022-07-29T04:38:35.352Z,2412.00
2022-07-29T04:39:35.368Z,2440.00
2022-07-29T04:40:35.340Z,2472.00
2022-07-29T04:41:35.332Z,2496.00
2022-07-29T04:42:35.309Z,2528.00
2022-07-29T04:43:36.950Z,2568.00
2022-07-29T04:44:39.533Z,2608.00
2022-07-29T04:45:35.270Z,2656.00
2022-07-29T04:46:35.395Z,2716.00
2022-07-29T04:47:35.251Z,2780.00
2022-07-29T04:48:35.243Z,2856.00
2022-07-29T04:49:35.233Z,2952.00
2022-07-29T04:50:35.236Z,3064.00
2022-07-29T04:51:35.203Z,3180.00
2022-07-29T04:52:35.205Z,3312.00
2022-07-29T04:53:35.194Z,3452.00
2022-07-29T04:54:35.184Z,3624.00
2022-07-29T04:55:35.185Z,3788.00
2022-07-29T04:56:35.163Z,3952.00
2022-07-29T04:57:35.145Z,4192.00
2022-07-29T04:58:35.137Z,4440.00
2022-07-29T04:59:35.175Z,4704.00
2022-07-29T05:00:35.134Z,4936.00
2022-07-29T05:01:35.143Z,5108.00
2022-07-29T05:02:35.168Z,5304.00
2022-07-29T05:03:35.077Z,5524.00
2022-07-29T05:04:35.086Z,5704.00
2022-07-29T05:05:35.068Z,5936.00
2022-07-29T05:06:35.058Z,6184.00
2022-07-29T05:07:35.048Z,6428.00
2022-07-29T05:08:35.039Z,6676.00
2022-07-29T05:09:35.020Z,6908.00
2022-07-29T05:10:35.027Z,7116.00
2022-07-29T05:11:35.000Z,7276.00
2022-07-29T05:12:34.986Z,7348.00
2022-07-29T05:13:45.294Z,7376.00
2022-07-29T05:14:35.959Z,7364.00
2022-07-29T05:15:35.020Z,7328.00
2022-07-29T05:16:34.960Z,7260.00
2022-07-29T05:17:34.932Z,7200.00
2022-07-29T05:18:34.937Z,7164.00
2022-07-29T05:19:34.911Z,7160.00
2022-07-29T05:20:34.912Z,7216.00
2022-07-29T05:21:34.906Z,7304.00
2022-07-29T05:22:34.892Z,7232.00
2022-07-29T05:23:34.875Z,7192.00
2022-07-29T05:24:34.872Z,7108.00
2022-07-29T05:25:43.652Z,7004.00
2022-07-29T05:26:35.832Z,6920.00
2022-07-29T05:27:34.825Z,6832.00
2022-07-29T05:28:34.824Z,6808.00
2022-07-29T05:29:43.312Z,6880.00
2022-07-29T05:30:35.820Z,7052.00
2022-07-29T05:31:34.785Z,7348.00
2022-07-29T05:32:34.775Z,7540.00
2022-07-29T05:33:37.062Z,7780.00
2022-07-29T05:34:34.746Z,8036.00
2022-07-29T05:35:34.746Z,8276.00
2022-07-29T05:36:34.726Z,8596.00
2022-07-29T05:37:34.719Z,8820.00
2022-07-29T05:38:34.713Z,9168.00
2022-07-29T05:39:47.603Z,9560.00
2022-07-29T05:40:35.702Z,9840.00
2022-07-29T05:41:34.687Z,9980.00
2022-07-29T05:42:34.658Z,10040.00
2022-07-29T05:43:34.665Z,10072.00
2022-07-29T05:44:34.642Z,10068.00
2022-07-29T05:45:34.658Z,9892.00
2022-07-29T05:46:35.683Z,9496.00
2022-07-29T05:47:34.609Z,9096.00
2022-07-29T05:48:34.590Z,8832.00
2022-07-29T05:49:34.615Z,8760.00
2022-07-29T05:50:34.571Z,8900.00
2022-07-29T05:51:34.565Z,9236.00
2022-07-29T05:52:34.551Z,9736.00
2022-07-29T05:53:34.543Z,10264.00
2022-07-29T05:54:34.533Z,10596.00
2022-07-29T05:55:34.517Z,10860.00
2022-07-29T05:56:34.520Z,11140.00
2022-07-29T05:57:34.530Z,11508.00
2022-07-29T05:58:34.492Z,11932.00
2022-07-29T05:59:34.474Z,12364.00
2022-07-29T06:00:34.557Z,12820.00
2022-07-29T06:01:34.530Z,13412.00
2022-07-29T06:02:34.458Z,13972.00
2022-07-29T06:03:34.427Z,14532.00
2022-07-29T06:04:34.600Z,15100.00
2022-07-29T06:05:34.415Z,15536.00
2022-07-29T06:06:34.409Z,15860.00
2022-07-29T06:07:34.396Z,16196.00
2022-07-29T06:08:34.398Z,16768.00
2022-07-29T06:09:36.193Z,17376.00
2022-07-29T06:10:34.376Z,24704.00
2022-07-29T06:11:34.362Z,18688.00
2022-07-29T06:12:34.339Z,19328.00
2022-07-29T06:13:34.333Z,20032.00
2022-07-29T06:14:34.321Z,25216.00
2022-07-29T06:15:34.441Z,20288.00
2022-07-29T06:16:34.384Z,19776.00
2022-07-29T06:17:34.281Z,19840.00
2022-07-29T06:18:34.280Z,20064.00
2022-07-29T06:19:34.262Z,20256.00
2022-07-29T06:20:34.282Z,22304.00
2022-07-29T06:21:34.243Z,20480.00
2022-07-29T06:22:34.233Z,20384.00
2022-07-29T06:23:34.215Z,20448.00
2022-07-29T06:24:34.204Z,20736.00
2022-07-29T06:25:34.194Z,23872.00
2022-07-29T06:26:39.216Z,31296.00
2022-07-29T06:27:35.175Z,36064.00
2022-07-29T06:28:34.166Z,36384.00
2022-07-29T06:29:34.147Z,31008.00
2022-07-29T06:30:34.208Z,27264.00
2022-07-29T06:31:34.137Z,33920.00
2022-07-29T06:32:34.118Z,27776.00
2022-07-29T06:33:34.106Z,35328.00
2022-07-29T06:34:34.106Z,36064.00
2022-07-29T06:35:41.515Z,33600.00
2022-07-29T06:36:35.088Z,21440.00
2022-07-29T06:37:34.070Z,16096.00
2022-07-29T06:38:37.422Z,15808.00
2022-07-29T06:39:35.040Z,21440.00
2022-07-29T06:40:34.049Z,28192.00
2022-07-29T06:41:34.046Z,15048.00
2022-07-29T06:42:34.010Z,21760.00
2022-07-29T06:43:34.000Z,13496.00
2022-07-29T06:44:33.993Z,13092.00
2022-07-29T06:45:33.981Z,13004.00
2022-07-29T06:46:34.033Z,13268.00
2022-07-29T06:47:33.962Z,13752.00
2022-07-29T06:48:33.962Z,14416.00
2022-07-29T06:49:33.982Z,15188.00
2022-07-29T06:50:33.934Z,15944.00
2022-07-29T06:51:33.914Z,16736.00
2022-07-29T06:52:33.923Z,17344.00
2022-07-29T06:53:33.899Z,17920.00
2022-07-29T06:54:33.906Z,18464.00
2022-07-29T06:55:33.866Z,18848.00
2022-07-29T06:56:39.407Z,19296.00
2022-07-29T06:57:34.865Z,19776.00
2022-07-29T06:58:33.847Z,20448.00
2022-07-29T06:59:36.025Z,21440.00
2022-07-29T07:00:33.818Z,23584.00
2022-07-29T07:01:33.843Z,26336.00
2022-07-29T07:02:34.058Z,29120.00
2022-07-29T07:03:33.788Z,19168.00
2022-07-29T07:04:33.779Z,17536.00
2022-07-29T07:05:33.759Z,16736.00
2022-07-29T07:06:33.761Z,16024.00
2022-07-29T07:07:33.752Z,16084.00
2022-07-29T07:08:33.741Z,16320.00
2022-07-29T07:09:40.170Z,14428.00
2022-07-29T07:10:34.712Z,13748.00
2022-07-29T07:11:33.701Z,13208.00
2022-07-29T07:12:33.703Z,12828.00
2022-07-29T07:13:33.691Z,12452.00
2022-07-29T07:14:33.673Z,12020.00
2022-07-29T07:15:39.566Z,11524.00
2022-07-29T07:16:34.788Z,11156.00
2022-07-29T07:17:33.645Z,10948.00
2022-07-29T07:18:33.633Z,10852.00
2022-07-29T07:19:33.615Z,10864.00
2022-07-29T07:20:33.616Z,10944.00
2022-07-29T07:21:33.595Z,11088.00
2022-07-29T07:22:38.622Z,11264.00
2022-07-29T07:23:34.665Z,11436.00
2022-07-29T07:24:33.565Z,11632.00
2022-07-29T07:25:33.557Z,11888.00
2022-07-29T07:26:33.578Z,12240.00
2022-07-29T07:27:33.529Z,12620.00
2022-07-29T07:28:33.529Z,12992.00
2022-07-29T07:29:33.510Z,13344.00
2022-07-29T07:30:33.512Z,13668.00
2022-07-29T07:31:33.571Z,13976.00
2022-07-29T07:32:33.499Z,14264.00
2022-07-29T07:33:33.502Z,14504.00
2022-07-29T07:34:33.452Z,14708.00
2022-07-29T07:35:33.451Z,14932.00
2022-07-29T07:36:33.696Z,15216.00
2022-07-29T07:37:33.424Z,15556.00
2022-07-29T07:38:33.412Z,15932.00
2022-07-29T07:39:33.422Z,16324.00
2022-07-29T07:40:33.393Z,16768.00
2022-07-29T07:41:33.397Z,17152.00
2022-07-29T07:42:33.383Z,17600.00
2022-07-29T07:43:33.370Z,18144.00
2022-07-29T07:44:39.051Z,18784.00
2022-07-29T07:45:34.367Z,19392.00
2022-07-29T07:46:33.340Z,19872.00
2022-07-29T07:47:34.234Z,20352.00
2022-07-29T07:48:33.307Z,20832.00
2022-07-29T07:49:33.288Z,21376.00
2022-07-29T07:50:33.318Z,22208.00
2022-07-29T07:51:33.308Z,22912.00
2022-07-29T07:52:33.268Z,23648.00
2022-07-29T07:53:33.261Z,24320.00
2022-07-29T07:54:33.247Z,24896.00
2022-07-29T07:55:53.509Z,26944.00
2022-07-29T07:56:35.438Z,26784.00
2022-07-29T07:57:33.199Z,28384.00
2022-07-29T07:58:33.201Z,29792.00
2022-07-29T07:59:33.190Z,31200.00
2022-07-29T08:00:33.190Z,33216.00
2022-07-29T08:01:47.980Z,34976.00
2022-07-29T08:02:34.227Z,35840.00
2022-07-29T08:03:33.146Z,45408.00
2022-07-29T08:04:33.149Z,42304.00
2022-07-29T08:05:33.139Z,40480.00
2022-07-29T08:06:33.126Z,39840.00
2022-07-29T08:07:33.113Z,53120.00
2022-07-29T08:08:33.099Z,44448.00
2022-07-29T08:09:33.075Z,43168.00
2022-07-29T08:10:33.090Z,41120.00
2022-07-29T08:11:34.001Z,43520.00
2022-07-29T08:12:33.067Z,38880.00
2022-07-29T08:13:33.037Z,39392.00
2022-07-29T08:14:33.035Z,35648.00
2022-07-29T08:15:33.009Z,33120.00
2022-07-29T08:16:33.073Z,32928.00
2022-07-29T08:17:35.233Z,31360.00
2022-07-29T08:18:32.989Z,29888.00
2022-07-29T08:19:32.981Z,29568.00
2022-07-29T08:20:32.968Z,29792.00
2022-07-29T08:21:32.960Z,29504.00
2022-07-29T08:22:32.971Z,29056.00
2022-07-29T08:23:47.047Z,28576.00
2022-07-29T08:24:33.924Z,28320.00
2022-07-29T08:25:32.922Z,27968.00
2022-07-29T08:26:32.902Z,27584.00
2022-07-29T08:27:43.328Z,27264.00
2022-07-29T08:28:33.883Z,26752.00
2022-07-29T08:29:32.873Z,26016.00
2022-07-29T08:30:32.854Z,25568.00
2022-07-29T08:31:32.858Z,25120.00
2022-07-29T08:32:52.537Z,24928.00
2022-07-29T08:33:33.826Z,25120.00
2022-07-29T08:34:32.817Z,25632.00
2022-07-29T08:35:35.740Z,27136.00
2022-07-29T08:36:32.798Z,28160.00
2022-07-29T08:37:32.798Z,36512.00
2022-07-29T08:38:32.779Z,32256.00
2022-07-29T08:39:32.768Z,29440.00
2022-07-29T08:40:32.911Z,33984.00
2022-07-29T08:41:32.750Z,25920.00
2022-07-29T08:42:32.747Z,24576.00
2022-07-29T08:43:32.720Z,24832.00
2022-07-29T08:44:32.712Z,25568.00
2022-07-29T08:45:32.748Z,26784.00
2022-07-29T08:46:32.701Z,28992.00
2022-07-29T08:47:32.705Z,31808.00
2022-07-29T08:48:32.663Z,32480.00
2022-07-29T08:49:32.672Z,34528.00
2022-07-29T08:50:32.645Z,52928.00
2022-07-29T08:51:32.642Z,49920.00
2022-07-29T08:52:32.645Z,70848.00
2022-07-29T08:53:32.632Z,103296.00
2022-07-29T08:54:32.606Z,100864.00
2022-07-29T08:55:32.596Z,103392.00
2022-07-29T08:56:32.637Z,97088.00
2022-07-29T08:57:32.596Z,95552.00
2022-07-29T08:58:32.568Z,100128.00
2022-07-29T08:59:32.558Z,104896.00
2022-07-29T09:00:32.543Z,97792.00
2022-07-29T09:01:35.606Z,103264.00
2022-07-29T09:02:32.520Z,99424.00
2022-07-29T09:03:32.630Z,86784.00
2022-07-29T09:04:32.511Z,89280.00
2022-07-29T09:05:35.770Z,94912.00
2022-07-29T09:06:33.481Z,91616.00
2022-07-29T09:07:34.641Z,90240.00
2022-07-29T09:08:32.486Z,95360.00
2022-07-29T09:09:32.455Z,92736.00
2022-07-29T09:10:32.445Z,81120.00
2022-07-29T09:11:32.445Z,94720.00
2022-07-29T09:12:37.584Z,97984.00
2022-07-29T09:13:33.433Z,89824.00
2022-07-29T09:14:32.428Z,104448.00
2022-07-29T09:15:32.406Z,81632.00
2022-07-29T09:16:52.263Z,103104.00
2022-07-29T09:17:33.401Z,93952.00
2022-07-29T09:18:32.377Z,104096.00
2022-07-29T09:19:32.358Z,106080.00
2022-07-29T09:20:32.350Z,109536.00
2022-07-29T09:21:32.339Z,77440.00
2022-07-29T09:22:32.330Z,54368.00
2022-07-29T09:23:32.340Z,45472.00
2022-07-29T09:24:32.308Z,59488.00
2022-07-29T09:25:32.311Z,56800.00
2022-07-29T09:26:32.293Z,43040.00
2022-07-29T09:27:32.285Z,44128.00
2022-07-29T09:28:32.285Z,41856.00
2022-07-29T09:29:36.116Z,40672.00
2022-07-29T09:30:32.312Z,95648.00
2022-07-29T09:31:32.290Z,62560.00
2022-07-29T09:32:32.229Z,95168.00
2022-07-29T09:33:32.236Z,96576.00
2022-07-29T09:34:32.225Z,90016.00
2022-07-29T09:35:32.222Z,102656.00
2022-07-29T09:36:32.187Z,98720.00
2022-07-29T09:37:32.189Z,89984.00
2022-07-29T09:38:32.187Z,89856.00
2022-07-29T09:39:32.169Z,94528.00
2022-07-29T09:40:32.160Z,87776.00
2022-07-29T09:41:32.152Z,83488.00
2022-07-29T09:42:32.141Z,79136.00
2022-07-29T09:43:32.152Z,85344.00
2022-07-29T09:44:32.123Z,85056.00
2022-07-29T09:45:32.112Z,96544.00
2022-07-29T09:46:32.147Z,98208.00
2022-07-29T09:47:32.100Z,97952.00
2022-07-29T09:48:32.102Z,98944.00
2022-07-29T09:49:32.075Z,95744.00
2022-07-29T09:50:32.075Z,91712.00
2022-07-29T09:51:38.234Z,90336.00
2022-07-29T09:52:33.079Z,85248.00
2022-07-29T09:53:32.046Z,96928.00
2022-07-29T09:54:32.027Z,94656.00
2022-07-29T09:55:32.028Z,99360.00
2022-07-29T09:56:32.018Z,106752.00
2022-07-29T09:57:31.998Z,107680.00
2022-07-29T09:58:32.019Z,117760.00
2022-07-29T09:59:31.979Z,115904.00
2022-07-29T10:00:32.040Z,112704.00
2022-07-29T10:01:31.964Z,68512.00
2022-07-29T10:02:31.951Z,57984.00
2022-07-29T10:03:32.015Z,60096.00
2022-07-29T10:04:31.936Z,89504.00
2022-07-29T10:05:36.495Z,73376.00
2022-07-29T10:06:32.912Z,66880.00
2022-07-29T10:07:31.912Z,85568.00
2022-07-29T10:08:32.045Z,89952.00
2022-07-29T10:09:31.894Z,82432.00
2022-07-29T10:10:31.884Z,62240.00
2022-07-29T10:11:35.484Z,60160.00
2022-07-29T10:12:32.856Z,64320.00
2022-07-29T10:13:31.856Z,67488.00
2022-07-29T10:14:31.839Z,72896.00
2022-07-29T10:15:31.827Z,128000.00
2022-07-29T10:16:31.890Z,108000.00
2022-07-29T10:17:31.809Z,97824.00
2022-07-29T10:18:31.809Z,70048.00
2022-07-29T10:19:31.789Z,79264.00
2022-07-29T10:20:31.795Z,68512.00
2022-07-29T10:21:35.550Z,69280.00
2022-07-29T10:22:52.348Z,68352.00
2022-07-29T10:23:46.154Z,57120.00
2022-07-29T10:24:32.742Z,57408.00
2022-07-29T10:25:31.732Z,54752.00
2022-07-29T10:26:31.731Z,52672.00
2022-07-29T10:27:32.875Z,50336.00
2022-07-29T10:28:31.715Z,50688.00
2022-07-29T10:29:31.697Z,49952.00
2022-07-29T10:30:31.688Z,51232.00
2022-07-29T10:31:31.736Z,57920.00
2022-07-29T10:32:31.666Z,53152.00
2022-07-29T10:33:31.669Z,50816.00
2022-07-29T10:34:31.647Z,47616.00
2022-07-29T10:35:31.638Z,43392.00
2022-07-29T10:36:31.629Z,41760.00
2022-07-29T10:37:35.945Z,42560.00
2022-07-29T10:38:31.630Z,45696.00
2022-07-29T10:39:41.732Z,40960.00
2022-07-29T10:40:32.600Z,41536.00
2022-07-29T10:41:32.460Z,65120.00
2022-07-29T10:42:34.516Z,43008.00
2022-07-29T10:43:31.875Z,47296.00
2022-07-29T10:44:31.568Z,51936.00
2022-07-29T10:45:31.565Z,110496.00
2022-07-29T10:46:31.593Z,64160.00
2022-07-29T10:47:31.525Z,54912.00
2022-07-29T10:48:31.526Z,111808.00
2022-07-29T10:49:31.530Z,94912.00
2022-07-29T10:50:31.506Z,135232.00
2022-07-29T10:51:31.546Z,51136.00
2022-07-29T10:52:31.482Z,51136.00
2022-07-29T10:53:33.893Z,68736.00
2022-07-29T10:54:31.459Z,76672.00
2022-07-29T10:55:31.458Z,106272.00
2022-07-29T10:56:31.459Z,74752.00
2022-07-29T10:57:53.652Z,62816.00
2022-07-29T10:58:32.431Z,131584.00
2022-07-29T10:59:36.451Z,123392.00
2022-07-29T11:00:32.399Z,57376.00
2022-07-29T11:01:37.504Z,102304.00
2022-07-29T11:02:41.106Z,100320.00
2022-07-29T11:03:32.465Z,59648.00
2022-07-29T11:04:31.363Z,120352.00
2022-07-29T11:05:39.848Z,129312.00
2022-07-29T11:06:32.351Z,68480.00
2022-07-29T11:07:41.598Z,45280.00
2022-07-29T11:08:32.334Z,105440.00
2022-07-29T11:09:37.473Z,87008.00
2022-07-29T11:10:32.306Z,123840.00
2022-07-29T11:11:31.296Z,114976.00
2022-07-29T11:12:31.278Z,121792.00
2022-07-29T11:13:31.277Z,102368.00
2022-07-29T11:14:31.265Z,81504.00
2022-07-29T11:15:32.222Z,90976.00
2022-07-29T11:16:31.249Z,88608.00
2022-07-29T11:17:37.396Z,42112.00
2022-07-29T11:18:32.230Z,83328.00
2022-07-29T11:19:31.210Z,91968.00
2022-07-29T11:20:31.209Z,80928.00
2022-07-29T11:21:35.941Z,99136.00
2022-07-29T11:22:32.189Z,110176.00
2022-07-29T11:23:33.799Z,87456.00
2022-07-29T11:24:31.167Z,118880.00
2022-07-29T11:26:32.145Z,117120.00
2022-07-29T11:27:31.133Z,104320.00
2022-07-29T11:28:31.145Z,106208.00
2022-07-29T11:29:31.126Z,58496.00
2022-07-29T11:30:31.106Z,125888.00
2022-07-29T11:31:31.114Z,89856.00
2022-07-29T11:32:31.087Z,94720.00
2022-07-29T11:33:54.113Z,100096.00
2022-07-29T11:34:32.075Z,71008.00
2022-07-29T11:35:38.135Z,112384.00
2022-07-29T11:36:32.086Z,99744.00
2022-07-29T11:37:31.049Z,110112.00
2022-07-29T11:38:31.870Z,115776.00
2022-07-29T11:39:37.091Z,113600.00
2022-07-29T11:40:32.018Z,82944.00
2022-07-29T11:41:32.626Z,72448.00
2022-07-29T11:42:34.263Z,40832.00
2022-07-29T11:43:31.011Z,40064.00
2022-07-29T11:44:30.983Z,40256.00
2022-07-29T11:45:42.945Z,48064.00
2022-07-29T11:46:31.973Z,100128.00
2022-07-29T11:47:30.972Z,103520.00
2022-07-29T11:48:32.579Z,98752.00
2022-07-29T11:49:31.955Z,102080.00
2022-07-29T11:50:30.936Z,80960.00
2022-07-29T11:51:32.795Z,90720.00
2022-07-29T11:52:30.906Z,105216.00
2022-07-29T11:53:32.485Z,98944.00
2022-07-29T11:54:30.896Z,92608.00
2022-07-29T11:55:32.641Z,92832.00
2022-07-29T11:56:30.878Z,94816.00
2022-07-29T11:58:31.882Z,106496.00
2022-07-29T11:59:33.579Z,111648.00
2022-07-29T12:00:30.830Z,114144.00
2022-07-29T12:01:30.839Z,103872.00
2022-07-29T12:02:37.026Z,38496.00
2022-07-29T12:03:33.490Z,31264.00
2022-07-29T12:04:30.816Z,26144.00
2022-07-29T12:05:36.384Z,25184.00
2022-07-29T12:06:31.775Z,25792.00
2022-07-29T12:07:03.279Z,98400.00
2022-07-29T12:07:32.702Z,27680.00
2022-07-29T12:08:30.755Z,30176.00
2022-07-29T12:09:30.776Z,34816.00
2022-07-29T12:10:31.739Z,89376.00
2022-07-29T12:11:30.738Z,45440.00
2022-07-29T12:12:30.716Z,79168.00
2022-07-29T12:13:37.515Z,58560.00
2022-07-29T12:14:31.708Z,51744.00